createdAt,value
2023-05-10T00:00:14.328Z,3.53
2023-05-10T00:02:40.927Z,3.85
2023-05-10T00:05:08.168Z,4.05
2023-05-10T00:07:34.538Z,3.38
2023-05-10T00:10:00.924Z,3.45
2023-05-10T00:12:28.665Z,3.35
2023-05-10T00:14:55.031Z,4.35
2023-05-10T00:17:21.429Z,3.90
2023-05-10T00:19:47.782Z,4.30
2023-05-10T00:22:14.168Z,3.78
2023-05-10T00:24:40.551Z,3.97
2023-05-10T00:27:06.877Z,3.40
2023-05-10T00:29:34.714Z,3.80
2023-05-10T00:32:01.142Z,3.17
2023-05-10T00:34:27.515Z,4.10
2023-05-10T00:36:53.855Z,3.72
2023-05-10T00:39:20.265Z,4.03
2023-05-10T00:41:46.629Z,4.32
2023-05-10T00:44:13.033Z,4.35
2023-05-10T00:46:41.170Z,3.72
2023-05-10T00:49:07.600Z,3.35
2023-05-10T00:51:34.142Z,3.25
2023-05-10T00:54:00.673Z,3.78
2023-05-10T00:56:27.813Z,3.50
2023-05-10T00:58:54.211Z,3.47
2023-05-10T01:01:20.831Z,4.05
2023-05-10T01:03:49.259Z,3.67
2023-05-10T01:06:15.626Z,4.43
2023-05-10T01:08:42.252Z,4.30
2023-05-10T01:11:08.621Z,3.88
2023-05-10T01:13:38.373Z,4.25
2023-05-10T01:16:05.587Z,4.28
2023-05-10T01:18:35.095Z,4.15
2023-05-10T01:21:15.645Z,4.07
2023-05-10T01:24:18.223Z,4.10
2023-05-10T01:27:02.811Z,4.20
2023-05-10T01:30:05.038Z,4.47
2023-05-10T01:32:43.481Z,4.32
2023-05-10T01:35:17.212Z,3.85
2023-05-10T01:37:52.350Z,4.70
2023-05-10T01:40:27.288Z,4.20
2023-05-10T01:43:03.666Z,4.75
2023-05-10T01:45:34.662Z,4.45
2023-05-10T01:48:07.415Z,4.80
2023-05-10T01:50:36.348Z,5.23
2023-05-10T01:53:03.747Z,4.68
2023-05-10T01:55:33.573Z,4.60
2023-05-10T01:58:04.623Z,4.30
2023-05-10T02:00:32.612Z,4.80
2023-05-10T02:03:01.028Z,5.35
2023-05-10T02:05:30.657Z,4.35
2023-05-10T02:07:59.430Z,4.68
2023-05-10T02:10:26.877Z,4.95
2023-05-10T02:12:55.604Z,5.47
2023-05-10T02:15:25.784Z,5.43
2023-05-10T02:17:55.218Z,5.53
2023-05-10T02:20:23.041Z,4.88
2023-05-10T02:22:53.274Z,5.57
2023-05-10T02:25:22.139Z,5.53
2023-05-10T02:27:49.456Z,5.55
2023-05-10T02:30:18.086Z,5.50
2023-05-10T02:32:45.515Z,5.43
2023-05-10T02:35:12.904Z,5.60
2023-05-10T02:37:40.548Z,5.43
2023-05-10T02:40:09.772Z,5.10
2023-05-10T02:42:38.462Z,5.43
2023-05-10T02:45:11.384Z,5.50
2023-05-10T02:47:37.866Z,5.50
2023-05-10T02:50:05.070Z,6.43
2023-05-10T02:52:40.287Z,6.10
2023-05-10T02:55:10.692Z,5.95
2023-05-10T02:57:41.797Z,6.05
2023-05-10T03:00:09.064Z,5.95
2023-05-10T03:02:35.463Z,6.70
2023-05-10T03:05:02.001Z,6.05
2023-05-10T03:07:28.391Z,6.65
2023-05-10T03:09:54.775Z,6.45
2023-05-10T03:12:32.380Z,5.75
2023-05-10T03:15:06.468Z,6.53
2023-05-10T03:17:39.923Z,6.80
2023-05-10T03:20:10.847Z,6.55
2023-05-10T03:22:41.707Z,6.82
2023-05-10T03:25:11.653Z,7.47
2023-05-10T03:27:43.467Z,7.35
2023-05-10T03:30:12.632Z,6.18
2023-05-10T03:32:39.393Z,6.45
2023-05-10T03:35:07.804Z,7.05
2023-05-10T03:37:34.161Z,7.03
2023-05-10T03:40:00.610Z,7.60
2023-05-10T03:42:26.981Z,7.55
2023-05-10T03:44:54.891Z,6.97
2023-05-10T03:47:21.244Z,7.45
2023-05-10T03:49:47.742Z,7.30
2023-05-10T03:52:14.138Z,7.05
2023-05-10T03:54:40.550Z,7.38
2023-05-10T03:57:06.952Z,7.82
2023-05-10T03:59:33.351Z,8.13
2023-05-10T04:02:01.095Z,7.80
2023-05-10T04:04:27.675Z,8.23
2023-05-10T04:06:54.083Z,8.10
2023-05-10T04:09:20.429Z,7.32
2023-05-10T04:11:46.805Z,10.90
2023-05-10T04:14:13.190Z,11.43
2023-05-10T04:16:39.611Z,9.00
2023-05-10T04:19:07.335Z,8.73
2023-05-10T04:21:33.713Z,8.63
2023-05-10T04:24:00.054Z,8.48
2023-05-10T04:26:26.428Z,8.75
2023-05-10T04:28:52.852Z,9.10
2023-05-10T04:31:19.229Z,9.13
2023-05-10T04:33:45.655Z,8.70
2023-05-10T04:36:13.381Z,8.32
2023-05-10T04:38:39.756Z,8.55
2023-05-10T04:41:06.843Z,9.05
2023-05-10T04:43:33.469Z,9.50
2023-05-10T04:45:59.882Z,8.35
2023-05-10T04:48:26.297Z,9.35
2023-05-10T04:50:53.294Z,8.68
2023-05-10T04:53:21.094Z,8.90
2023-05-10T04:55:47.559Z,8.82
2023-05-10T04:58:13.912Z,9.18
2023-05-10T05:00:40.502Z,9.05
2023-05-10T05:03:07.196Z,8.52
2023-05-10T05:05:33.674Z,9.82
2023-05-10T05:08:00.085Z,8.65
2023-05-10T05:10:28.045Z,9.48
2023-05-10T05:12:54.495Z,9.18
2023-05-10T05:15:22.338Z,9.73
2023-05-10T05:18:04.179Z,9.23
2023-05-10T05:20:32.980Z,10.13
2023-05-10T05:22:59.397Z,10.30
2023-05-10T05:25:25.753Z,9.80
2023-05-10T05:27:53.485Z,10.25
2023-05-10T05:30:21.004Z,10.63
2023-05-10T05:32:47.578Z,9.77
2023-05-10T05:35:14.247Z,11.63
2023-05-10T05:37:40.697Z,10.55
2023-05-10T05:40:08.113Z,10.00
2023-05-10T05:42:34.535Z,11.90
2023-05-10T05:45:02.362Z,11.05
2023-05-10T05:47:28.750Z,11.10
2023-05-10T05:49:55.138Z,10.65
2023-05-10T05:52:21.555Z,11.38
2023-05-10T05:54:47.913Z,12.55
2023-05-10T05:57:14.257Z,10.52
2023-05-10T05:59:40.758Z,10.40
2023-05-10T06:02:08.541Z,10.13
2023-05-10T06:04:35.007Z,9.40
2023-05-10T06:07:01.674Z,10.15
2023-05-10T06:09:28.052Z,9.85
2023-05-10T06:11:54.432Z,8.45
2023-05-10T06:14:21.575Z,8.95
2023-05-10T06:16:48.013Z,8.48
2023-05-10T06:19:16.102Z,9.20
2023-05-10T06:21:42.575Z,8.55
2023-05-10T06:24:09.085Z,8.98
2023-05-10T06:26:35.450Z,8.57
2023-05-10T06:29:02.236Z,8.52
2023-05-10T06:31:28.820Z,9.30
2023-05-10T06:33:56.753Z,9.70
2023-05-10T06:36:24.838Z,10.35
2023-05-10T06:38:51.198Z,10.73
2023-05-10T06:41:17.573Z,10.10
2023-05-10T06:43:44.033Z,10.88
2023-05-10T06:46:10.414Z,10.30
2023-05-10T06:48:36.822Z,10.75
2023-05-10T06:51:03.212Z,10.63
2023-05-10T06:53:30.956Z,9.35
2023-05-10T06:55:57.319Z,10.90
2023-05-10T06:58:23.847Z,10.80
2023-05-10T07:00:50.237Z,11.48
2023-05-10T07:03:16.634Z,11.45
2023-05-10T07:05:43.309Z,11.02
2023-05-10T07:08:09.810Z,11.00
2023-05-10T07:10:37.518Z,11.50
2023-05-10T07:13:04.007Z,11.13
2023-05-10T07:15:30.405Z,10.52
2023-05-10T07:17:56.836Z,10.93
2023-05-10T07:20:23.371Z,10.45
2023-05-10T07:22:49.821Z,11.35
2023-05-10T07:25:16.379Z,10.50
2023-05-10T07:27:44.275Z,11.55
2023-05-10T07:30:11.820Z,9.95
2023-05-10T07:32:38.534Z,11.88
2023-05-10T07:35:05.864Z,11.13
2023-05-10T07:37:32.263Z,10.25
2023-05-10T07:39:58.629Z,9.55
2023-05-10T07:42:25.028Z,9.23
2023-05-10T07:44:52.721Z,9.63
2023-05-10T07:47:19.131Z,11.07
2023-05-10T07:49:45.650Z,10.18
2023-05-10T07:52:12.062Z,11.00
2023-05-10T07:54:38.471Z,10.52
2023-05-10T07:57:04.858Z,10.68
2023-05-10T07:59:31.249Z,9.15
2023-05-10T08:01:59.035Z,10.68
2023-05-10T08:04:25.527Z,9.48
2023-05-10T08:06:51.903Z,9.40
2023-05-10T08:09:18.258Z,7.95
2023-05-10T08:11:44.628Z,8.50
2023-05-10T08:14:11.018Z,7.53
2023-05-10T08:16:37.386Z,10.52
2023-05-10T08:19:05.203Z,6.65
2023-05-10T08:21:31.692Z,6.07
2023-05-10T08:23:58.173Z,5.45
2023-05-10T08:26:24.665Z,5.00
2023-05-10T08:28:51.057Z,4.32
2023-05-10T08:31:17.557Z,4.55
2023-05-10T08:34:20.516Z,3.67
2023-05-10T08:36:31.874Z,3.28
2023-05-10T08:38:58.693Z,2.42
2023-05-10T08:41:26.260Z,2.92
2023-05-10T08:43:53.904Z,2.38
2023-05-10T08:46:21.838Z,2.47
2023-05-10T08:48:50.189Z,2.38
2023-05-10T08:51:20.494Z,2.90
2023-05-10T08:53:48.520Z,2.92
2023-05-10T08:56:16.573Z,3.03
2023-05-10T08:58:43.014Z,3.30
2023-05-10T09:01:09.859Z,3.33
2023-05-10T09:03:38.608Z,4.10
2023-05-10T09:06:05.336Z,2.58
2023-05-10T09:08:32.278Z,2.80
2023-05-10T09:11:01.889Z,3.10
2023-05-10T09:13:29.174Z,3.40
2023-05-10T09:15:55.687Z,3.60
2023-05-10T09:18:22.145Z,3.22
2023-05-10T09:20:49.695Z,3.42
2023-05-10T09:23:16.145Z,3.38
2023-05-10T09:25:42.708Z,3.15
2023-05-10T09:28:10.588Z,3.67
2023-05-10T09:30:37.424Z,3.72
2023-05-10T09:33:04.084Z,4.85
2023-05-10T09:35:33.062Z,5.13
2023-05-10T09:38:01.890Z,4.70
2023-05-10T09:40:29.725Z,4.00
2023-05-10T09:42:57.491Z,4.65
2023-05-10T09:45:27.761Z,3.67
2023-05-10T09:47:54.287Z,3.17
2023-05-10T09:50:22.705Z,3.83
2023-05-10T09:52:51.341Z,4.38
2023-05-10T09:55:18.892Z,3.38
2023-05-10T09:57:46.031Z,3.22
2023-05-10T10:00:18.023Z,3.10
2023-05-10T10:02:46.616Z,3.90
2023-05-10T10:05:13.066Z,4.07
2023-05-10T10:07:40.186Z,3.55
2023-05-10T10:10:07.917Z,4.18
2023-05-10T10:12:34.365Z,3.50
2023-05-10T10:15:01.508Z,3.90
2023-05-10T10:17:28.468Z,3.95
2023-05-10T10:19:57.882Z,4.10
2023-05-10T10:22:24.419Z,4.03
2023-05-10T10:24:51.335Z,4.20
2023-05-10T10:27:25.515Z,4.10
2023-05-10T10:30:02.892Z,4.35
2023-05-10T10:32:38.872Z,5.53
2023-05-10T10:35:08.965Z,4.53
2023-05-10T10:37:45.370Z,4.80
2023-05-10T10:40:25.563Z,5.10
2023-05-10T10:42:52.235Z,4.47
2023-05-10T10:45:19.973Z,4.97
2023-05-10T10:47:46.709Z,4.60
2023-05-10T10:50:14.550Z,4.95
2023-05-10T10:52:41.608Z,5.93
2023-05-10T10:55:09.974Z,4.97
2023-05-10T10:57:47.820Z,4.53
2023-05-10T11:00:28.435Z,3.92
2023-05-10T11:02:58.087Z,4.53
2023-05-10T11:05:34.547Z,4.82
2023-05-10T11:08:07.184Z,4.68
2023-05-10T11:10:34.608Z,4.15
2023-05-10T11:13:01.867Z,4.38
2023-05-10T11:15:33.452Z,3.70
2023-05-10T11:18:00.183Z,4.32
2023-05-10T11:20:30.050Z,3.88
2023-05-10T11:22:56.541Z,4.60
2023-05-10T11:25:27.877Z,4.72
2023-05-10T11:27:54.527Z,4.05
2023-05-10T11:30:22.346Z,4.00
2023-05-10T11:32:48.858Z,4.70
2023-05-10T11:35:15.232Z,3.42
2023-05-10T11:37:42.922Z,4.18
2023-05-10T11:40:10.807Z,3.80
2023-05-10T11:42:38.214Z,3.88
2023-05-10T11:45:05.955Z,4.25
2023-05-10T11:47:32.471Z,4.35
2023-05-10T11:49:59.260Z,4.20
2023-05-10T11:52:25.719Z,4.30
2023-05-10T11:54:53.956Z,4.30
2023-05-10T11:57:20.986Z,4.15
2023-05-10T11:59:47.481Z,3.78
2023-05-10T12:02:15.046Z,4.68
2023-05-10T12:04:42.271Z,4.47
2023-05-10T12:07:08.761Z,4.25
2023-05-10T12:09:43.188Z,4.25
2023-05-10T12:12:16.454Z,4.05
2023-05-10T12:14:42.935Z,4.47
2023-05-10T12:17:12.793Z,4.50
2023-05-10T12:19:39.944Z,4.43
2023-05-10T12:22:06.581Z,5.53
2023-05-10T12:24:35.071Z,4.70
2023-05-10T12:27:05.630Z,4.60
2023-05-10T12:29:33.294Z,4.47
2023-05-10T12:32:00.924Z,4.90
2023-05-10T12:34:31.573Z,4.78
2023-05-10T12:36:58.121Z,4.45
2023-05-10T12:39:24.565Z,4.85
2023-05-10T12:41:51.535Z,4.22
2023-05-10T12:44:18.334Z,4.72
2023-05-10T12:46:46.005Z,4.40
2023-05-10T12:49:12.420Z,5.00
2023-05-10T12:51:38.850Z,5.00
2023-05-10T12:54:05.226Z,4.72
2023-05-10T12:56:31.594Z,4.55
2023-05-10T12:58:57.933Z,4.95
2023-05-10T13:01:24.326Z,4.70
2023-05-10T13:03:53.670Z,5.32
2023-05-10T13:06:20.021Z,5.03
2023-05-10T13:08:46.372Z,4.40
2023-05-10T13:11:12.780Z,5.25
2023-05-10T13:13:39.156Z,5.22
2023-05-10T13:16:06.237Z,5.55
2023-05-10T13:18:32.663Z,4.32
2023-05-10T13:21:00.383Z,4.90
2023-05-10T13:23:26.877Z,5.82
2023-05-10T13:25:53.264Z,5.00
2023-05-10T13:28:19.675Z,5.18
2023-05-10T13:30:46.065Z,4.53
2023-05-10T13:33:12.429Z,4.30
2023-05-10T13:35:38.806Z,5.72
2023-05-10T13:38:06.516Z,3.95
2023-05-10T13:40:32.900Z,6.03
2023-05-10T13:42:59.320Z,5.57
2023-05-10T13:45:27.133Z,5.13
2023-05-10T13:47:53.539Z,4.90
2023-05-10T13:50:20.227Z,4.80
2023-05-10T13:52:46.594Z,5.55
2023-05-10T13:55:15.023Z,5.65
2023-05-10T13:57:41.785Z,5.93
2023-05-10T14:00:09.262Z,7.00
2023-05-10T14:02:36.068Z,7.07
2023-05-10T14:05:02.639Z,7.45
2023-05-10T14:07:29.068Z,7.90
2023-05-10T14:09:55.438Z,8.10
2023-05-10T14:12:23.225Z,7.78
2023-05-10T14:14:49.601Z,7.30
2023-05-10T14:17:15.965Z,8.57
2023-05-10T14:19:42.317Z,8.50
2023-05-10T14:22:08.656Z,9.23
2023-05-10T14:24:35.064Z,8.57
2023-05-10T14:27:01.437Z,10.63
2023-05-10T14:29:29.186Z,8.43
2023-05-10T14:31:55.598Z,9.35
2023-05-10T14:34:22.053Z,9.18
2023-05-10T14:36:48.447Z,11.18
2023-05-10T14:39:15.003Z,10.65
2023-05-10T14:41:41.359Z,11.48
2023-05-10T14:44:07.760Z,10.80
2023-05-10T14:46:35.625Z,11.95
2023-05-10T14:49:02.045Z,12.23
2023-05-10T14:51:28.449Z,13.38
2023-05-10T14:53:54.822Z,12.40
2023-05-10T14:56:21.169Z,11.48
2023-05-10T14:58:47.583Z,12.43
2023-05-10T15:01:14.057Z,11.52
2023-05-10T15:03:42.187Z,12.15
2023-05-10T15:06:09.152Z,12.25
2023-05-10T15:08:35.531Z,12.05
2023-05-10T15:11:01.885Z,11.95
2023-05-10T15:13:28.263Z,11.25
2023-05-10T15:15:54.824Z,11.18
2023-05-10T15:18:21.288Z,11.40
2023-05-10T15:20:48.984Z,12.48
2023-05-10T15:23:15.401Z,11.95
2023-05-10T15:25:41.955Z,12.10
2023-05-10T15:28:08.287Z,12.75
2023-05-10T15:30:34.680Z,12.95
2023-05-10T15:33:01.145Z,13.00
2023-05-10T15:35:27.563Z,11.98
2023-05-10T15:37:55.440Z,13.30
2023-05-10T15:40:21.868Z,12.65
2023-05-10T15:42:48.225Z,11.50
2023-05-10T15:45:15.308Z,11.45
2023-05-10T15:47:41.795Z,11.70
2023-05-10T15:50:09.237Z,11.80
2023-05-10T15:52:35.617Z,12.07
2023-05-10T15:55:03.718Z,11.57
2023-05-10T15:57:30.202Z,12.05
2023-05-10T15:59:56.779Z,10.30
2023-05-10T16:02:23.420Z,11.55
2023-05-10T16:04:49.956Z,11.55
2023-05-10T16:07:16.360Z,10.82
2023-05-10T16:09:42.693Z,10.27
2023-05-10T16:12:10.483Z,10.20
2023-05-10T16:14:36.871Z,10.48
2023-05-10T16:17:05.895Z,10.57
2023-05-10T16:19:32.383Z,11.10
2023-05-10T16:21:58.981Z,12.00
2023-05-10T16:24:25.393Z,12.30
2023-05-10T16:26:51.854Z,11.77
2023-05-10T16:29:19.614Z,12.98
2023-05-10T16:31:46.083Z,14.75
2023-05-10T16:34:12.498Z,13.30
2023-05-10T16:36:38.933Z,13.95
2023-05-10T16:39:05.321Z,19.05
2023-05-10T16:41:33.165Z,14.38
2023-05-10T16:43:59.582Z,13.82
2023-05-10T16:46:27.411Z,15.02
2023-05-10T16:48:53.801Z,14.95
2023-05-10T16:51:20.172Z,16.27
2023-05-10T16:53:46.561Z,15.23
2023-05-10T16:56:12.942Z,15.63
2023-05-10T16:58:39.303Z,17.08
2023-05-10T17:01:05.712Z,14.98
2023-05-10T17:03:33.566Z,15.50
2023-05-10T17:06:00.175Z,15.07
2023-05-10T17:08:26.595Z,15.52
2023-05-10T17:10:53.070Z,16.83
2023-05-10T17:13:19.484Z,16.33
2023-05-10T17:15:46.318Z,16.35
2023-05-10T17:18:12.750Z,16.98
2023-05-10T17:20:43.417Z,17.35
2023-05-10T17:23:09.969Z,17.67
2023-05-10T17:25:36.485Z,15.48
2023-05-10T17:28:03.140Z,17.52
2023-05-10T17:30:29.913Z,15.25
2023-05-10T17:32:56.381Z,16.42
2023-05-10T17:35:22.825Z,16.10
2023-05-10T17:37:50.540Z,18.08
2023-05-10T17:40:17.168Z,16.98
2023-05-10T17:42:43.571Z,15.45
2023-05-10T17:45:10.961Z,16.35
2023-05-10T17:47:37.521Z,16.02
2023-05-10T17:50:04.661Z,15.80
2023-05-10T17:52:33.444Z,17.27
2023-05-10T17:55:01.407Z,16.83
2023-05-10T17:57:27.783Z,17.70
2023-05-10T17:59:54.168Z,18.45
2023-05-10T18:02:20.656Z,19.80
2023-05-10T18:04:47.234Z,17.20
2023-05-10T18:07:13.664Z,17.50
2023-05-10T18:09:40.047Z,17.25
2023-05-10T18:12:08.010Z,18.35
2023-05-10T18:14:40.501Z,19.40
2023-05-10T18:17:07.333Z,19.85
2023-05-10T18:19:33.771Z,19.08
2023-05-10T18:22:00.165Z,19.60
2023-05-10T18:24:37.511Z,17.98
2023-05-10T18:27:06.037Z,18.25
2023-05-10T18:29:33.737Z,18.00
2023-05-10T18:32:00.217Z,19.42
2023-05-10T18:34:26.625Z,17.65
2023-05-10T18:36:53.129Z,18.95
2023-05-10T18:39:19.553Z,19.23
2023-05-10T18:41:46.062Z,20.17
2023-05-10T18:44:12.450Z,20.83
2023-05-10T18:46:40.213Z,18.08
2023-05-10T18:49:06.829Z,16.05
2023-05-10T18:51:33.203Z,18.63
2023-05-10T18:53:59.632Z,17.67
2023-05-10T18:56:26.033Z,16.30
2023-05-10T18:58:52.386Z,17.55
2023-05-10T19:01:18.771Z,18.88
2023-05-10T19:03:46.509Z,18.55
2023-05-10T19:06:12.851Z,18.38
2023-05-10T19:08:39.237Z,19.23
2023-05-10T19:11:05.594Z,16.65
2023-05-10T19:13:31.920Z,16.83
2023-05-10T19:16:05.655Z,18.42
2023-05-10T19:18:33.144Z,19.23
2023-05-10T19:21:00.949Z,17.65
2023-05-10T19:23:30.211Z,17.17
2023-05-10T19:25:56.652Z,16.92
2023-05-10T19:28:23.115Z,16.85
2023-05-10T19:30:49.851Z,17.85
2023-05-10T19:33:17.301Z,16.98
2023-05-10T19:35:43.774Z,17.00
2023-05-10T19:38:11.566Z,18.50
2023-05-10T19:40:37.974Z,18.20
2023-05-10T19:43:04.345Z,17.08
2023-05-10T19:45:30.707Z,15.02
2023-05-10T19:47:57.683Z,16.92
2023-05-10T19:50:24.151Z,14.48
2023-05-10T19:52:50.767Z,14.48
2023-05-10T19:55:28.196Z,13.13
2023-05-10T19:57:54.672Z,11.45
2023-05-10T20:00:21.437Z,12.88
2023-05-10T20:02:47.889Z,9.85
2023-05-10T20:05:14.673Z,11.20
2023-05-10T20:07:41.104Z,9.57
2023-05-10T20:10:08.342Z,8.85
2023-05-10T20:12:36.087Z,10.25
2023-05-10T20:15:02.525Z,10.02
2023-05-10T20:17:29.103Z,10.57
2023-05-10T20:19:55.659Z,9.52
2023-05-10T20:22:22.074Z,11.43
2023-05-10T20:24:48.653Z,8.88
2023-05-10T20:27:15.077Z,9.68
2023-05-10T20:29:42.775Z,8.38
2023-05-10T20:32:09.255Z,8.80
2023-05-10T20:34:35.613Z,9.30
2023-05-10T20:37:01.982Z,8.63
2023-05-10T20:39:28.366Z,8.30
2023-05-10T20:41:54.763Z,8.50
2023-05-10T20:44:21.129Z,9.13
2023-05-10T20:46:48.988Z,11.32
2023-05-10T20:49:15.427Z,11.77
2023-05-10T20:51:41.801Z,10.60
2023-05-10T20:54:08.203Z,10.35
2023-05-10T20:56:34.633Z,9.40
2023-05-10T20:59:01.035Z,10.35
2023-05-10T21:01:27.469Z,10.65
2023-05-10T21:03:55.158Z,9.98
2023-05-10T21:06:21.578Z,10.25
2023-05-10T21:08:47.964Z,10.80
2023-05-10T21:11:14.380Z,10.18
2023-05-10T21:13:40.764Z,11.40
2023-05-10T21:16:07.149Z,10.30
2023-05-10T21:18:33.594Z,11.68
2023-05-10T21:21:01.359Z,10.75
2023-05-10T21:23:27.716Z,12.65
2023-05-10T21:25:54.345Z,11.52
2023-05-10T21:28:20.736Z,10.40
2023-05-10T21:30:47.127Z,11.18
2023-05-10T21:33:13.601Z,10.95
2023-05-10T21:35:39.976Z,10.70
2023-05-10T21:38:07.784Z,10.05
2023-05-10T21:40:34.187Z,11.57
2023-05-10T21:43:00.657Z,11.20
2023-05-10T21:45:27.145Z,11.15
2023-05-10T21:47:53.553Z,11.82
2023-05-10T21:50:20.221Z,10.20
2023-05-10T21:52:46.742Z,13.00
2023-05-10T21:55:15.483Z,10.02
2023-05-10T21:57:41.957Z,11.23
2023-05-10T22:00:09.890Z,10.75
2023-05-10T22:02:36.846Z,9.25
2023-05-10T22:05:03.835Z,11.60
2023-05-10T22:07:30.402Z,12.07
2023-05-10T22:09:56.894Z,11.27
2023-05-10T22:12:25.032Z,10.95
2023-05-10T22:15:06.394Z,10.65
2023-05-10T22:17:37.534Z,9.70
2023-05-10T22:20:05.364Z,10.52
2023-05-10T22:22:31.950Z,11.40
2023-05-10T22:24:58.329Z,11.07
2023-05-10T22:27:26.136Z,11.93
2023-05-10T22:29:52.596Z,12.18
2023-05-10T22:32:19.021Z,11.93
2023-05-10T22:34:45.403Z,13.57
2023-05-10T22:37:11.902Z,12.43
2023-05-10T22:39:38.269Z,11.18
2023-05-10T22:42:04.762Z,12.27
2023-05-10T22:44:32.568Z,12.10
2023-05-10T22:46:59.001Z,11.57
2023-05-10T22:49:25.529Z,12.00
2023-05-10T22:51:51.869Z,14.13
2023-05-10T22:54:18.318Z,12.98
2023-05-10T22:56:44.681Z,13.65
2023-05-10T22:59:11.146Z,20.77
2023-05-10T23:01:38.958Z,20.48
2023-05-10T23:04:05.362Z,23.95
2023-05-10T23:06:31.740Z,23.33
2023-05-10T23:08:58.130Z,22.67
2023-05-10T23:11:24.909Z,23.67
2023-05-10T23:13:51.266Z,23.60
2023-05-10T23:16:17.939Z,25.92
2023-05-10T23:18:45.752Z,23.35
2023-05-10T23:21:12.523Z,25.08
2023-05-10T23:23:38.959Z,25.23
2023-05-10T23:26:05.350Z,22.35
2023-05-10T23:28:31.720Z,25.67
2023-05-10T23:30:58.748Z,24.10
2023-05-10T23:33:25.596Z,21.88
2023-05-10T23:35:53.422Z,21.60
2023-05-10T23:38:19.857Z,24.98
2023-05-10T23:40:48.282Z,25.77
2023-05-10T23:43:14.657Z,24.92
2023-05-10T23:45:41.051Z,24.45
2023-05-10T23:48:07.597Z,26.02
2023-05-10T23:50:34.113Z,22.48
2023-05-10T23:53:01.818Z,26.35
2023-05-10T23:55:28.218Z,24.17
2023-05-10T23:57:54.551Z,24.65
